Time;durP1;ratioP1;P1;durP2;ratioP2;P2;SDS_P1;SDS_P2;PMS_P1;PMS_P2;Temp;Humidity;BMP_temperature;BMP_pressure;BME280_temperature;BME280_humidity;BME280_pressure;Samples;Min_cycle;Max_cycle;Signal;HPM_P1;HPM_P2
2022/10/12 00:01:06;;;;;;;6.88;3.50;;;;;;;6.62;68.69;101233.00;5136636;27;20051;-54
2022/10/12 00:03:34;;;;;;;13.18;3.88;;;;;;;6.60;68.95;101233.25;5136257;27;20066;-53
2022/10/12 00:06:07;;;;;;;5.55;3.53;;;;;;;6.59;68.92;101230.75;5136743;27;20499;-54
2022/10/12 00:08:35;;;;;;;5.82;3.25;;;;;;;6.58;69.01;101234.63;5135871;27;20058;-56
2022/10/12 00:11:03;;;;;;;9.82;3.30;;;;;;;6.50;68.89;101241.50;5134856;27;20051;-53
2022/10/12 00:13:38;;;;;;;6.00;3.58;;;;;;;6.52;68.62;101236.53;5136100;27;20498;-52
2022/10/12 00:16:08;;;;;;;7.68;3.67;;;;;;;6.49;68.89;101237.91;5136288;27;20074;-53
2022/10/12 00:18:35;;;;;;;5.95;3.67;;;;;;;6.44;68.61;101235.09;5133186;27;20051;-54
2022/10/12 00:21:04;;;;;;;5.18;3.30;;;;;;;6.44;68.81;101228.72;5135926;27;20058;-54
2022/10/12 00:23:32;;;;;;;5.53;3.38;;;;;;;6.41;68.87;101226.50;5135932;27;20047;-53
2022/10/12 00:26:02;;;;;;;8.57;4.05;;;;;;;6.39;69.11;101221.25;5133364;27;20055;-52
2022/10/12 00:28:35;;;;;;;5.63;3.17;;;;;;;6.35;69.50;101217.34;5135047;27;20562;-54
2022/10/12 00:31:08;;;;;;;4.97;3.30;;;;;;;6.38;68.93;101227.03;5135689;27;20051;-54
2022/10/12 00:33:36;;;;;;;6.28;4.03;;;;;;;6.34;68.74;101223.13;5135293;27;20051;-53
2022/10/12 00:36:12;;;;;;;7.00;3.80;;;;;;;6.32;69.20;101226.19;5135791;27;20059;-52
2022/10/12 00:38:39;;;;;;;4.57;3.20;;;;;;;6.34;68.83;101228.66;5132880;27;20054;-52
2022/10/12 00:41:07;;;;;;;6.30;3.80;;;;;;;6.29;69.20;101226.72;5135978;27;20055;-53
2022/10/12 00:43:40;;;;;;;6.82;3.78;;;;;;;6.28;69.13;101230.59;5135577;27;20058;-51
2022/10/12 00:46:18;;;;;;;6.93;3.70;;;;;;;6.20;69.35;101231.09;5135631;27;20085;-52
2022/10/12 00:48:50;;;;;;;6.57;3.70;;;;;;;6.21;69.42;101225.25;5133873;27;20058;-54
2022/10/12 00:51:21;;;;;;;7.13;4.68;;;;;;;6.20;69.51;101220.84;5121465;27;20047;-53
2022/10/12 00:53:57;;;;;;;9.35;3.45;;;;;;;6.18;69.32;101225.00;5135613;27;20055;-52
2022/10/12 00:56:27;;;;;;;5.03;3.20;;;;;;;6.20;69.29;101223.63;5135616;27;20066;-53
2022/10/12 00:59:04;;;;;;;5.97;3.22;;;;;;;6.19;69.06;101229.41;5135804;27;20055;-52
2022/10/12 01:01:35;;;;;;;9.32;4.95;;;;;;;6.15;68.36;101231.03;5134833;27;20411;-51
2022/10/12 01:04:05;;;;;;;7.20;3.67;;;;;;;6.08;69.30;101232.09;5135028;27;20055;-52
2022/10/12 01:06:34;;;;;;;7.32;3.33;;;;;;;6.08;69.23;101232.09;5134332;27;20068;-53
2022/10/12 01:09:04;;;;;;;8.63;4.18;;;;;;;6.07;69.28;101230.44;5135326;27;20066;-54
2022/10/12 01:11:35;;;;;;;4.55;3.25;;;;;;;6.09;69.30;101235.72;5135054;27;20058;-54
2022/10/12 01:14:06;;;;;;;7.93;3.60;;;;;;;6.05;69.09;101237.34;5134984;27;20055;-51
2022/10/12 01:16:43;;;;;;;6.68;4.07;;;;;;;6.02;69.43;101235.91;5135325;27;20055;-55
2022/10/12 01:19:29;;;;;;;4.93;3.50;;;;;;;6.01;69.48;101225.97;5133655;27;20438;-54
2022/10/12 01:22:02;;;;;;;5.60;3.47;;;;;;;6.01;69.38;101225.97;5114438;28;20063;-53
2022/10/12 01:24:48;;;;;;;6.65;3.55;;;;;;;5.99;69.58;101228.16;5118439;27;20062;-52
2022/10/12 01:27:30;;;;;;;5.38;3.65;;;;;;;5.97;69.08;101224.84;5135193;27;20059;-53
2022/10/12 01:30:08;;;;;;;5.45;3.25;;;;;;;5.94;69.06;101230.03;5134697;27;20062;-54
2022/10/12 01:32:53;;;;;;;7.35;3.72;;;;;;;5.90;69.53;101215.91;5134319;27;20051;-53
2022/10/12 01:35:28;;;;;;;5.70;3.17;;;;;;;5.91;69.03;101217.56;5127392;27;20478;-53
2022/10/12 01:38:05;;;;;;;6.00;3.80;;;;;;;5.87;69.65;101213.66;5134359;27;20054;-54
2022/10/12 01:40:37;;;;;;;7.03;3.65;;;;;;;5.83;69.12;101205.06;5134324;27;20059;-59
2022/10/12 01:43:04;;;;;;;6.03;3.80;;;;;;;5.81;68.90;101211.97;5134527;27;20058;-59
2022/10/12 01:45:33;;;;;;;6.22;3.53;;;;;;;5.80;69.43;101202.00;5134327;27;20058;-60
2022/10/12 01:48:01;;;;;;;6.55;3.10;;;;;;;5.81;69.83;101198.13;5133430;27;20063;-59
2022/10/12 01:50:39;;;;;;;6.10;3.25;;;;;;;5.81;68.53;101203.66;5134379;27;20138;-60
2022/10/12 01:53:16;;;;;;;4.53;3.30;;;;;;;5.82;69.13;101200.66;5134400;27;20434;-58
2022/10/12 01:55:49;;;;;;;7.13;4.05;;;;;;;5.80;69.06;101193.72;5134137;27;20399;-57
2022/10/12 01:58:28;;;;;;;9.55;3.20;;;;;;;5.79;69.42;101186.50;5146796;27;20406;-59
2022/10/12 02:01:07;;;;;;;5.45;3.28;;;;;;;5.80;69.15;101200.06;5154812;27;20051;-59
2022/10/12 02:03:40;;;;;;;7.25;4.47;;;;;;;5.68;69.32;101202.19;5143241;27;20047;-60
2022/10/12 02:06:12;;;;;;;5.82;3.80;;;;;;;5.67;69.42;101197.75;5134294;27;20055;-60
2022/10/12 02:08:47;;;;;;;6.03;3.50;;;;;;;5.63;69.43;101197.44;5134028;27;20054;-60
2022/10/12 02:11:16;;;;;;;5.00;3.67;;;;;;;5.63;69.52;101202.16;5134200;27;20055;-60
2022/10/12 02:13:47;;;;;;;6.78;3.47;;;;;;;5.64;69.46;101193.56;5133856;27;20042;-60
2022/10/12 02:16:20;;;;;;;5.82;3.58;;;;;;;5.65;69.42;101195.25;5132437;27;20407;-59
2022/10/12 02:18:52;;;;;;;6.80;3.35;;;;;;;5.65;69.08;101188.91;5133475;27;20073;-59
2022/10/12 02:21:24;;;;;;;7.60;3.67;;;;;;;5.64;68.37;101181.69;5133988;27;20051;-59
2022/10/12 02:23:54;;;;;;;7.00;3.40;;;;;;;5.61;69.01;101183.06;5133851;27;20487;-59
2022/10/12 02:26:21;;;;;;;;;;;;;;;5.56;69.13;101182.19;5133107;27;20047;-59
2022/10/12 02:28:50;;;;;;;7.15;3.35;;;;;;;5.55;68.67;101177.75;5133766;27;20311;-59
2022/10/12 02:31:28;;;;;;;7.50;4.10;;;;;;;5.50;68.75;101175.75;5133577;27;20055;-60
2022/10/12 02:34:00;;;;;;;10.80;4.00;;;;;;;5.46;69.17;101172.72;5131944;27;20503;-58
2022/10/12 02:36:36;;;;;;;5.40;3.35;;;;;;;5.44;68.96;101168.56;5133811;27;20050;-52
2022/10/12 02:39:09;;;;;;;7.15;3.53;;;;;;;5.43;68.77;101164.94;5133533;27;20059;-52
2022/10/12 02:41:42;;;;;;;6.95;3.53;;;;;;;5.39;69.32;101168.50;5132941;27;20403;-52
2022/10/12 02:44:13;;;;;;;5.82;3.90;;;;;;;5.42;69.38;101165.22;5133406;27;20059;-52
2022/10/12 02:46:45;;;;;;;7.15;3.78;;;;;;;5.40;69.34;101162.72;5133459;27;20066;-53
2022/10/12 02:49:14;;;;;;;6.70;3.85;;;;;;;5.39;69.41;101162.97;5133237;27;20309;-52
2022/10/12 02:51:43;;;;;;;8.27;4.15;;;;;;;5.37;69.65;101165.16;5133206;27;20055;-53
2022/10/12 02:54:11;;;;;;;6.15;3.97;;;;;;;5.37;69.91;101159.63;5133039;27;20070;-53
2022/10/12 02:56:42;;;;;;;8.38;4.22;;;;;;;5.33;69.47;101158.50;5134162;27;20051;-51
2022/10/12 02:59:10;;;;;;;7.93;4.05;;;;;;;5.32;69.88;101154.91;5133507;27;20441;-54
2022/10/12 03:01:38;;;;;;;5.95;3.75;;;;;;;5.33;69.64;101158.50;5132224;27;20066;-53
2022/10/12 03:04:07;;;;;;;5.03;3.20;;;;;;;5.29;69.41;101147.97;5133416;27;20407;-52
2022/10/12 03:06:34;;;;;;;8.25;3.80;;;;;;;5.25;69.58;101157.88;5132971;27;20062;-53
2022/10/12 03:09:04;;;;;;;7.53;3.67;;;;;;;5.29;69.12;101149.88;5132878;28;20055;-52
2022/10/12 03:11:31;;;;;;;4.95;2.90;;;;;;;5.29;69.21;101150.75;5133162;28;20514;-51
2022/10/12 03:13:59;;;;;;;6.78;3.92;;;;;;;5.25;69.82;101144.06;5135906;27;20078;-53
2022/10/12 03:16:26;;;;;;;5.47;3.45;;;;;;;5.23;69.95;101145.44;5136322;27;20431;-53
2022/10/12 03:18:56;;;;;;;6.47;3.60;;;;;;;5.25;69.10;101138.56;5137397;27;20047;-52
2022/10/12 03:21:25;;;;;;;5.35;3.63;;;;;;;5.23;69.35;101137.97;5137032;27;20054;-53
2022/10/12 03:23:52;;;;;;;5.85;3.85;;;;;;;5.25;69.42;101137.72;5137099;27;20047;-52
2022/10/12 03:26:19;;;;;;;8.38;4.10;;;;;;;5.18;69.56;101135.16;5137654;27;20055;-51
2022/10/12 03:28:46;;;;;;;9.05;4.35;;;;;;;5.22;69.15;101130.78;5157975;27;20066;-53
2022/10/12 03:31:14;;;;;;;8.30;3.50;;;;;;;5.26;69.29;101136.63;5135542;27;20496;-54
2022/10/12 03:33:41;;;;;;;7.65;4.07;;;;;;;5.29;69.40;101138.84;5136970;27;20062;-52
2022/10/12 03:36:09;;;;;;;10.35;3.88;;;;;;;5.29;69.04;101142.47;5136045;27;20051;-53
2022/10/12 03:38:38;;;;;;;6.28;3.90;;;;;;;5.28;69.11;101138.00;5137178;27;20058;-53
2022/10/12 03:41:05;;;;;;;9.15;4.43;;;;;;;5.28;69.12;101134.44;5137112;27;20062;-54
2022/10/12 03:43:33;;;;;;;5.72;3.90;;;;;;;5.22;69.53;101132.72;5136729;27;20039;-51
2022/10/12 03:46:00;;;;;;;7.15;4.13;;;;;;;5.16;69.73;101129.06;5135825;27;20051;-51
2022/10/12 03:48:27;;;;;;;5.80;3.97;;;;;;;5.16;69.63;101134.59;5136511;27;20577;-52
2022/10/12 03:50:55;;;;;;;7.30;3.85;;;;;;;5.15;69.54;101132.94;5137055;27;20058;-51
2022/10/12 03:53:22;;;;;;;5.97;3.50;;;;;;;5.16;69.79;101125.47;5137053;27;20055;-53
2022/10/12 03:55:51;;;;;;;5.43;3.60;;;;;;;5.18;69.93;101126.88;5136874;27;20059;-53
2022/10/12 03:58:18;;;;;;;8.60;4.50;;;;;;;5.20;69.79;101127.44;5136690;27;20059;-52
2022/10/12 04:00:45;;;;;;;7.80;3.85;;;;;;;5.21;68.72;101126.38;5135202;27;20051;-50
2022/10/12 04:03:13;;;;;;;6.20;3.78;;;;;;;5.18;69.31;101113.06;5136603;27;20406;-54
2022/10/12 04:05:40;;;;;;;8.60;3.65;;;;;;;5.16;68.72;101109.72;5136867;27;20518;-50
2022/10/12 04:08:07;;;;;;;6.72;3.63;;;;;;;5.13;68.87;101115.78;5136541;27;20062;-53
2022/10/12 04:10:34;;;;;;;11.10;4.20;;;;;;;5.15;69.55;101115.53;5136631;27;20497;-51
2022/10/12 04:13:03;;;;;;;8.52;4.78;;;;;;;5.12;69.37;101114.09;5136194;27;20522;-54
2022/10/12 04:15:30;;;;;;;9.43;4.45;;;;;;;5.11;68.87;101117.97;5134767;27;20055;-53
2022/10/12 04:17:57;;;;;;;7.25;3.90;;;;;;;5.08;68.76;101113.81;5136269;27;20055;-52
2022/10/12 04:20:25;;;;;;;8.20;3.90;;;;;;;5.11;68.36;101117.97;5136366;27;20046;-50
2022/10/12 04:22:52;;;;;;;8.32;3.67;;;;;;;5.09;68.77;101125.69;5133602;27;20426;-52
2022/10/12 04:25:19;;;;;;;5.07;3.75;;;;;;;5.06;69.11;101123.44;5136165;27;20051;-53
2022/10/12 04:27:46;;;;;;;8.57;4.70;;;;;;;5.12;69.57;101116.88;5135675;27;20411;-53
2022/10/12 04:30:15;;;;;;;8.13;3.90;;;;;;;5.16;70.26;101108.91;5132314;27;20051;-53
2022/10/12 04:32:42;;;;;;;9.02;4.28;;;;;;;5.19;69.76;101102.88;5136084;27;20055;-52
2022/10/12 04:35:10;;;;;;;6.28;3.90;;;;;;;5.24;69.34;101106.50;5135560;27;20392;-53
2022/10/12 04:37:37;;;;;;;9.35;4.10;;;;;;;5.20;68.75;101105.34;5136044;27;20058;-53
2022/10/12 04:40:06;;;;;;;6.50;3.67;;;;;;;5.16;68.97;101103.38;5136008;27;20055;-53
2022/10/12 04:42:33;;;;;;;7.00;4.05;;;;;;;5.12;69.23;101105.00;5135422;27;20073;-51
2022/10/12 04:45:00;;;;;;;6.72;3.80;;;;;;;5.09;69.21;101114.66;5130352;27;20372;-54
2022/10/12 04:47:29;;;;;;;7.45;4.53;;;;;;;5.08;68.79;101110.19;5135542;27;20066;-54
2022/10/12 04:49:56;;;;;;;5.72;3.85;;;;;;;5.03;68.53;101105.47;5131538;27;20069;-54
2022/10/12 04:52:23;;;;;;;7.25;4.28;;;;;;;5.00;69.33;101110.72;5135524;27;20058;-52
2022/10/12 04:54:51;;;;;;;4.53;3.70;;;;;;;4.97;69.21;101113.97;5135211;27;20472;-53
2022/10/12 04:57:18;;;;;;;6.63;3.92;;;;;;;4.95;68.94;101108.69;5135170;27;20051;-52
2022/10/12 04:59:45;;;;;;;6.50;3.95;;;;;;;4.93;69.34;101105.38;5135422;27;20059;-53
2022/10/12 05:02:13;;;;;;;7.43;4.50;;;;;;;4.91;69.40;101103.97;5135464;27;20077;-55
2022/10/12 05:04:41;;;;;;;6.57;4.03;;;;;;;4.90;68.85;101105.09;5126130;27;20502;-53
2022/10/12 05:07:09;;;;;;;8.38;4.00;;;;;;;4.91;69.21;101096.50;5118263;27;20058;-53
2022/10/12 05:09:36;;;;;;;8.95;4.07;;;;;;;4.94;69.77;101104.28;5134271;27;20059;-52
2022/10/12 05:12:03;;;;;;;7.22;3.95;;;;;;;4.98;69.54;101101.84;5140951;27;20058;-55
2022/10/12 05:14:30;;;;;;;5.70;3.63;;;;;;;4.99;69.47;101109.03;5153338;27;20062;-53
2022/10/12 05:16:58;;;;;;;7.10;4.20;;;;;;;5.04;69.40;101106.28;5144133;27;20056;-51
2022/10/12 05:19:25;;;;;;;9.50;4.07;;;;;;;5.12;69.76;101102.25;5154289;27;20062;-55
2022/10/12 05:21:54;;;;;;;6.65;3.40;;;;;;;5.20;68.96;101102.59;5135629;27;20059;-52
2022/10/12 05:24:21;;;;;;;6.32;4.18;;;;;;;5.20;69.04;101105.34;5132060;27;20039;-51
2022/10/12 05:26:48;;;;;;;6.63;3.60;;;;;;;5.23;69.49;101098.50;5127796;27;20059;-52
2022/10/12 05:29:16;;;;;;;6.53;3.70;;;;;;;5.23;69.07;101099.31;5142852;27;20482;-51
2022/10/12 05:31:43;;;;;;;5.70;3.58;;;;;;;5.22;68.91;101088.53;5151252;27;20062;-50
2022/10/12 05:34:10;;;;;;;11.05;4.07;;;;;;;5.24;69.39;101095.44;5149224;27;20053;-54
2022/10/12 05:36:37;;;;;;;5.57;3.55;;;;;;;5.28;68.72;101093.81;5131530;27;20059;-53
2022/10/12 05:39:06;;;;;;;8.63;4.20;;;;;;;5.29;69.21;101092.75;5152490;27;20510;-54
2022/10/12 05:41:33;;;;;;;7.30;4.53;;;;;;;5.34;69.02;101089.19;5152642;27;20054;-52
2022/10/12 05:44:01;;;;;;;7.28;4.25;;;;;;;5.39;68.95;101088.38;5136935;27;20063;-52
2022/10/12 05:46:28;;;;;;;8.50;4.80;;;;;;;5.41;68.96;101084.25;5133819;27;20058;-53
2022/10/12 05:48:55;;;;;;;8.30;5.18;;;;;;;5.44;69.21;101078.22;5134570;27;20062;-54
2022/10/12 05:51:22;;;;;;;7.95;4.65;;;;;;;5.52;69.43;101087.91;5134538;27;20062;-53
2022/10/12 05:53:50;;;;;;;7.63;4.80;;;;;;;5.56;69.19;101091.81;5134610;27;20065;-54
2022/10/12 05:56:18;;;;;;;7.78;4.38;;;;;;;5.61;68.83;101091.88;5134065;27;20060;-54
2022/10/12 05:58:45;;;;;;;10.55;5.07;;;;;;;5.63;68.78;101100.72;5134494;27;20058;-54
2022/10/12 06:01:13;;;;;;;8.90;5.03;;;;;;;5.69;68.61;101104.31;5125672;27;20055;-54
2022/10/12 06:03:41;;;;;;;7.88;4.85;;;;;;;5.72;68.08;101103.00;5134403;27;20047;-55
2022/10/12 06:06:08;;;;;;;9.07;4.63;;;;;;;5.74;67.58;101098.03;5134254;27;20055;-54
2022/10/12 06:08:36;;;;;;;8.90;5.18;;;;;;;5.78;67.63;101101.94;5113339;28;20051;-54
2022/10/12 06:11:03;;;;;;;7.30;4.50;;;;;;;5.79;67.47;101101.63;5113432;28;20447;-53
2022/10/12 06:13:32;;;;;;;8.18;4.45;;;;;;;5.77;67.30;101094.72;5118823;27;20051;-52
2022/10/12 06:15:59;;;;;;;8.15;4.45;;;;;;;5.82;67.49;101100.28;5133178;27;20058;-49
2022/10/12 06:18:27;;;;;;;6.90;4.05;;;;;;;5.86;67.72;101106.94;5130977;27;20051;-53
2022/10/12 06:20:55;;;;;;;6.88;5.10;;;;;;;5.96;67.12;101101.50;5134072;27;20423;-51
2022/10/12 06:23:29;;;;;;;7.28;4.63;;;;;;;5.97;67.63;101113.41;5132211;27;20062;-54
2022/10/12 06:25:57;;;;;;;6.10;4.90;;;;;;;5.98;67.11;101101.22;5130061;27;20423;-55
2022/10/12 06:28:24;;;;;;;7.53;5.30;;;;;;;6.11;66.70;101106.28;5132879;27;20062;-54
2022/10/12 06:30:55;;;;;;;7.00;5.45;;;;;;;6.41;66.54;101105.59;5133070;27;20067;-53
2022/10/12 06:33:23;;;;;;;11.52;4.28;;;;;;;6.99;66.06;101102.69;5133444;27;20054;-55
2022/10/12 06:35:51;;;;;;;7.32;4.03;;;;;;;7.53;64.15;101101.31;5124603;27;20055;-54
2022/10/12 06:38:18;;;;;;;5.32;3.55;;;;;;;8.06;62.78;101110.09;5126654;27;20058;-52
2022/10/12 06:40:45;;;;;;;8.38;4.18;;;;;;;8.16;60.60;101103.66;5130981;27;20051;-57
2022/10/12 06:43:12;;;;;;;7.32;3.63;;;;;;;8.41;60.47;101102.78;5128928;27;20062;-57
2022/10/12 06:45:40;;;;;;;6.20;3.78;;;;;;;8.80;60.15;101095.63;5126668;27;20098;-56
2022/10/12 06:48:08;;;;;;;5.70;3.50;;;;;;;9.28;58.19;101107.81;5126186;27;20407;-57
2022/10/12 06:50:36;;;;;;;7.07;3.38;;;;;;;9.16;58.38;101106.53;5124590;27;20419;-57
2022/10/12 06:53:03;;;;;;;7.25;3.47;;;;;;;9.34;58.17;101106.66;5116166;27;20054;-56
2022/10/12 06:55:31;;;;;;;4.78;3.22;;;;;;;10.58;55.33;101111.75;5111291;27;20055;-57
2022/10/12 06:57:58;;;;;;;7.32;3.83;;;;;;;11.97;51.56;101099.25;5116127;27;20419;-58
2022/10/12 07:00:26;;;;;;;6.00;3.65;;;;;;;13.20;48.93;101093.78;5123431;27;20435;-58
2022/10/12 07:02:53;;;;;;;9.77;3.90;;;;;;;14.15;45.85;101087.97;5125518;27;20065;-58
2022/10/12 07:05:23;;;;;;;7.93;3.40;;;;;;;15.29;43.67;101077.75;5137975;27;20051;-58
2022/10/12 07:07:51;;;;;;;4.97;3.72;;;;;;;16.22;41.94;101093.06;5153740;27;20054;-58
2022/10/12 07:10:18;;;;;;;7.70;4.47;;;;;;;17.07;40.47;101077.16;5133536;27;20054;-57
2022/10/12 07:12:45;;;;;;;8.18;5.10;;;;;;;17.78;38.73;101081.78;5153587;27;20058;-58
2022/10/12 07:15:13;;;;;;;8.02;4.45;;;;;;;18.61;37.54;101073.28;5131348;27;20047;-55
2022/10/12 07:17:40;;;;;;;6.38;4.43;;;;;;;19.32;35.56;101066.19;5112734;27;20078;-56
2022/10/12 07:20:08;;;;;;;9.88;5.72;;;;;;;20.08;34.31;101074.72;5134261;27;20062;-56
2022/10/12 07:22:36;;;;;;;6.13;4.28;;;;;;;20.80;33.17;101065.97;5132745;28;20070;-57
2022/10/12 07:25:04;;;;;;;9.15;4.78;;;;;;;21.42;31.95;101062.47;5131020;27;20521;-56
2022/10/12 07:27:31;;;;;;;8.07;4.65;;;;;;;21.96;30.86;101069.94;5133644;27;20055;-57
2022/10/12 07:29:58;;;;;;;8.27;5.80;;;;;;;22.57;30.31;101064.50;5144283;27;20046;-57
2022/10/12 07:32:26;;;;;;;8.32;4.75;;;;;;;23.16;29.48;101059.25;5136983;27;20047;-57
2022/10/12 07:34:53;;;;;;;5.68;4.15;;;;;;;23.69;28.79;101067.59;5121717;27;20065;-57
2022/10/12 07:37:21;;;;;;;5.82;3.72;;;;;;;24.44;27.39;101051.22;5153486;27;20055;-57
2022/10/12 07:39:49;;;;;;;7.85;5.38;;;;;;;24.85;26.75;101053.13;5150049;27;20065;-57
2022/10/12 07:42:17;;;;;;;7.80;4.47;;;;;;;25.46;26.34;101062.00;5153464;27;20057;-57
2022/10/12 07:44:44;;;;;;;6.22;3.88;;;;;;;25.64;25.80;101059.16;5137397;27;20061;-58
2022/10/12 07:47:12;;;;;;;8.65;4.82;;;;;;;26.32;25.01;101054.38;5153251;27;20055;-57
2022/10/12 07:49:39;;;;;;;9.73;5.90;;;;;;;26.79;24.30;101067.81;5134278;27;20086;-57
2022/10/12 07:52:06;;;;;;;9.05;4.60;;;;;;;27.26;23.84;101059.94;5153251;27;20414;-57
2022/10/12 07:54:33;;;;;;;6.43;4.40;;;;;;;27.88;22.95;101061.22;5131665;27;20054;-57
2022/10/12 07:57:02;;;;;;;7.30;5.10;;;;;;;27.71;23.06;101062.94;5135397;27;20070;-58
2022/10/12 07:59:29;;;;;;;10.90;6.75;;;;;;;28.25;22.65;101065.44;5142710;27;20491;-58
2022/10/12 08:01:57;;;;;;;7.80;5.10;;;;;;;29.14;21.45;101050.22;5126799;27;20079;-57
2022/10/12 08:04:24;;;;;;;7.80;4.72;;;;;;;29.47;21.48;101050.63;5154916;27;20062;-57
2022/10/12 08:06:51;;;;;;;6.93;4.10;;;;;;;29.66;21.69;101046.25;5142241;27;20061;-57
2022/10/12 08:09:18;;;;;;;9.02;5.45;;;;;;;29.62;21.13;101050.41;5153187;27;20407;-57
2022/10/12 08:11:46;;;;;;;8.10;5.03;;;;;;;28.87;22.08;101047.25;5135783;27;20070;-57
2022/10/12 08:14:16;;;;;;;8.15;5.50;;;;;;;26.97;23.64;101056.34;5148768;27;20061;-57
2022/10/12 08:16:43;;;;;;;8.23;5.47;;;;;;;25.80;25.28;101056.75;5136873;27;20427;-57
2022/10/12 08:19:11;;;;;;;7.55;5.45;;;;;;;26.29;25.11;101055.19;5132100;27;20541;-57
2022/10/12 08:21:40;;;;;;;8.52;5.10;;;;;;;27.81;23.68;101055.53;5137007;27;20514;-57
2022/10/12 08:24:08;;;;;;;6.18;4.90;;;;;;;28.82;22.11;101044.03;5142794;27;20062;-57
2022/10/12 08:26:35;;;;;;;8.17;4.70;;;;;;;29.57;22.09;101057.47;5139037;27;20098;-57
2022/10/12 08:29:03;;;;;;;8.40;5.63;;;;;;;30.34;20.66;101053.84;5156650;27;20062;-58
2022/10/12 08:31:32;;;;;;;6.68;4.95;;;;;;;30.95;20.25;101043.25;5147459;27;20043;-58
2022/10/12 08:33:59;;;;;;;6.57;4.53;;;;;;;31.33;19.98;101043.69;5150926;27;20047;-58
2022/10/12 08:36:27;;;;;;;9.18;5.55;;;;;;;31.71;19.61;101042.47;5133742;27;20050;-58
2022/10/12 08:38:55;;;;;;;6.63;4.65;;;;;;;32.10;19.52;101043.59;5141866;27;20050;-58
2022/10/12 08:41:40;;;;;;;6.90;4.97;;;;;;;31.58;19.56;101042.31;5133642;27;20055;-58
2022/10/12 08:44:26;;;;;;;5.68;4.20;;;;;;;32.20;20.10;101036.75;5147592;27;20062;-58
2022/10/12 08:47:00;;;;;;;6.13;4.38;;;;;;;33.11;19.04;101033.84;5146764;27;20062;-58
2022/10/12 08:49:29;;;;;;;5.57;4.40;;;;;;;33.71;18.46;101029.59;5133908;27;20499;-57
2022/10/12 08:52:00;;;;;;;7.60;5.57;;;;;;;34.07;17.63;101031.28;5131439;27;20070;-57
2022/10/12 08:54:35;;;;;;;7.53;5.53;;;;;;;34.40;17.74;101031.00;5136905;27;20063;-58
2022/10/12 08:57:02;;;;;;;9.25;5.43;;;;;;;34.02;18.27;101029.81;5131994;27;20487;-58
2022/10/12 08:59:33;;;;;;;6.13;4.80;;;;;;;33.52;18.63;101038.00;5153471;27;20061;-58
2022/10/12 09:02:21;;;;;;;6.22;4.53;;;;;;;33.79;18.28;101024.38;5151835;27;20615;-59
2022/10/12 09:04:56;;;;;;;8.93;5.13;;;;;;;33.95;17.84;101027.94;5150827;27;20518;-58
2022/10/12 09:07:27;;;;;;;8.23;4.32;;;;;;;33.67;18.81;101028.91;5133730;27;20058;-58
2022/10/12 09:10:07;;;;;;;4.05;3.63;;;;;;;32.97;18.94;101031.38;5155991;27;20061;-58
2022/10/12 09:12:46;;;;;;;7.55;4.07;;;;;;;33.29;18.83;101033.34;5137883;27;20043;-58
2022/10/12 09:15:18;;;;;;;5.60;3.75;;;;;;;33.12;19.66;101043.34;5145929;27;20050;-58
2022/10/12 09:17:51;;;;;;;6.95;4.25;;;;;;;33.57;18.93;101031.63;5136087;27;20439;-58
2022/10/12 09:20:21;;;;;;;7.60;4.15;;;;;;;33.70;18.90;101022.97;5135024;27;20487;-57
2022/10/12 09:22:51;;;;;;;7.95;4.55;;;;;;;34.20;18.63;101026.31;5134575;27;20051;-58
2022/10/12 09:25:22;;;;;;;7.70;4.32;;;;;;;34.20;18.62;101019.75;5134347;27;20059;-58
2022/10/12 09:27:49;;;;;;;5.43;3.58;;;;;;;34.71;17.90;101020.41;5118602;27;20051;-57
2022/10/12 09:30:19;;;;;;;6.32;3.92;;;;;;;35.31;17.63;101018.59;5134944;27;20066;-57
2022/10/12 09:33:17;;;;;;;6.68;3.47;;;;;;;35.80;17.16;101017.88;5113756;28;20396;-57
2022/10/12 09:35:45;;;;;;;;;;;;;;;35.13;17.66;101016.34;5114720;27;20048;-57
2022/10/12 09:38:12;;;;;;;6.37;4.37;;;;;;;35.51;17.41;101009.50;5126103;27;19927;-58
2022/10/12 09:40:40;;;;;;;7.55;4.25;;;;;;;36.16;17.36;101011.41;5112303;28;20054;-58
2022/10/12 09:43:08;;;;;;;4.70;3.43;;;;;;;36.75;16.82;101011.31;5121818;27;20081;-58
2022/10/12 09:45:37;;;;;;;5.28;3.47;;;;;;;37.32;16.60;101009.94;5134795;27;20043;-58
2022/10/12 09:48:22;;;;;;;4.88;3.50;;;;;;;37.73;15.68;101001.72;5128182;27;20058;-58
2022/10/12 09:50:53;;;;;;;6.25;3.03;;;;;;;37.79;16.13;100993.94;5112687;28;20499;-58
2022/10/12 09:53:31;;;;;;;7.60;3.95;;;;;;;36.73;16.23;101002.28;5124351;27;20056;-58
2022/10/12 09:56:03;;;;;;;4.57;3.08;;;;;;;35.94;17.53;100999.88;5112247;27;20510;-58
2022/10/12 09:58:41;;;;;;;11.18;3.30;;;;;;;34.90;18.60;101009.78;5132210;27;20388;-58
2022/10/12 10:01:15;;;;;;;4.78;2.92;;;;;;;34.08;19.02;101007.72;5126251;27;20055;-58
2022/10/12 10:03:43;;;;;;;6.68;3.38;;;;;;;32.50;20.45;101008.75;5122142;27;20067;-58
2022/10/12 10:06:10;;;;;;;;;;;;;;;31.30;21.55;101003.47;5110065;27;20047;-57
2022/10/12 10:08:41;;;;;;;9.45;3.40;;;;;;;31.10;21.92;101003.47;5128583;27;19923;-57
2022/10/12 10:11:15;;;;;;;7.15;3.50;;;;;;;30.59;23.24;100995.03;5120298;27;20500;-58
2022/10/12 10:13:50;;;;;;;9.27;4.55;;;;;;;30.11;23.61;100997.13;5121204;27;20441;-57
2022/10/12 10:16:19;;;;;;;5.95;4.60;;;;;;;30.29;23.43;100996.84;5112437;27;20430;-58
2022/10/12 10:18:50;;;;;;;5.53;2.95;;;;;;;30.21;23.34;100998.19;5109791;27;20059;-58
2022/10/12 10:21:27;;;;;;;5.63;2.78;;;;;;;30.09;23.12;101004.56;5112595;28;20056;-58
2022/10/12 10:23:56;;;;;;;20.77;7.65;;;;;;;29.61;23.49;100995.06;5112138;28;20063;-58
2022/10/12 10:26:26;;;;;;;7.75;3.67;;;;;;;29.38;24.33;101001.56;5117261;27;20063;-58
2022/10/12 10:28:57;;;;;;;5.70;2.97;;;;;;;29.65;24.54;100997.84;5122557;27;20447;-57
2022/10/12 10:31:28;;;;;;;5.28;2.97;;;;;;;30.09;23.55;100998.81;5113557;27;20055;-57
2022/10/12 10:34:13;;;;;;;6.53;2.92;;;;;;;31.21;22.84;100998.31;5132251;27;20059;-57
2022/10/12 10:36:45;;;;;;;5.70;2.72;;;;;;;32.09;21.98;100993.78;5133413;27;20055;-57
2022/10/12 10:39:26;;;;;;;4.82;2.92;;;;;;;31.66;21.49;100996.91;5133467;27;20055;-57
2022/10/12 10:41:54;;;;;;;4.18;2.25;;;;;;;32.40;21.39;100987.59;5133078;27;20059;-57
2022/10/12 10:44:27;;;;;;;5.75;2.58;;;;;;;33.63;20.44;100990.66;5133554;27;20066;-57
2022/10/12 10:46:56;;;;;;;5.45;2.65;;;;;;;34.28;19.33;100987.22;5131671;27;20051;-57
2022/10/12 10:49:33;;;;;;;4.85;2.38;;;;;;;34.13;18.77;100995.56;5133669;27;20518;-58
2022/10/12 10:52:02;;;;;;;3.72;2.20;;;;;;;35.04;18.07;100993.94;5132988;27;20062;-58
2022/10/12 10:54:32;;;;;;;3.67;2.28;;;;;;;35.70;16.94;100990.13;5133219;27;20421;-58
2022/10/12 10:57:03;;;;;;;4.68;2.17;;;;;;;36.46;16.39;100990.66;5132511;27;20078;-58
2022/10/12 10:59:39;;;;;;;5.40;2.35;;;;;;;36.73;16.64;100987.75;5131554;27;20051;-57
2022/10/12 11:02:16;;;;;;;6.82;2.50;;;;;;;37.32;16.53;100983.81;5130510;27;20066;-58
2022/10/12 11:04:49;;;;;;;6.47;2.90;;;;;;;37.70;16.07;100967.84;5126669;27;20492;-58
2022/10/12 11:07:24;;;;;;;5.80;2.20;;;;;;;37.40;16.28;100972.63;5132881;27;20407;-57
2022/10/12 11:09:55;;;;;;;4.75;2.00;;;;;;;37.93;15.21;100972.06;5149715;27;20050;-58
2022/10/12 11:12:28;;;;;;;4.47;2.30;;;;;;;37.14;15.74;100979.63;5134903;27;20055;-58
2022/10/12 11:14:59;;;;;;;4.75;2.40;;;;;;;37.79;15.86;100967.78;5133329;27;20065;-57
2022/10/12 11:17:31;;;;;;;4.72;2.15;;;;;;;37.87;15.56;100960.28;5132168;28;20062;-58
2022/10/12 11:20:18;;;;;;;7.25;2.40;;;;;;;37.62;15.80;100954.97;5132821;28;20399;-58
2022/10/12 11:22:49;;;;;;;5.28;2.28;;;;;;;36.89;16.14;100956.75;5126940;28;20173;-57
2022/10/12 11:25:24;;;;;;;5.05;2.70;;;;;;;36.97;15.66;100960.94;5130633;27;20051;-58
2022/10/12 11:27:52;;;;;;;7.00;2.45;;;;;;;37.15;16.73;100955.13;5137873;27;20058;-58
2022/10/12 11:30:22;;;;;;;4.07;2.30;;;;;;;37.22;16.32;100945.25;5153585;27;20054;-58
2022/10/12 11:32:54;;;;;;;3.53;2.30;;;;;;;37.65;15.86;100943.13;5115473;28;20437;-57
2022/10/12 11:35:27;;;;;;;5.03;2.80;;;;;;;37.41;15.65;100940.16;5115217;28;20396;-58
2022/10/12 11:38:00;;;;;;;4.93;2.53;;;;;;;37.12;16.21;100944.47;5123042;27;20052;-58
2022/10/12 11:40:31;;;;;;;7.80;2.55;;;;;;;37.59;15.74;100936.41;5120424;27;20055;-58
2022/10/12 11:43:05;;;;;;;4.95;2.40;;;;;;;37.72;15.54;100924.53;5134783;27;20055;-58
2022/10/12 11:45:38;;;;;;;5.32;2.40;;;;;;;37.65;15.78;100931.50;5117397;27;20070;-58